sensor_id;sensor_type;location;lat;lon;timestamp;temperature;humidity
69009;SHT31;56065;52.472;13.380;2022-10-31T00:02:01;13.90;83.51
69009;SHT31;56065;52.472;13.380;2022-10-31T00:04:27;13.92;83.66
69009;SHT31;56065;52.472;13.380;2022-10-31T00:06:52;13.93;83.69
69009;SHT31;56065;52.472;13.380;2022-10-31T00:09:17;13.93;83.93
69009;SHT31;56065;52.472;13.380;2022-10-31T00:11:43;13.96;83.94
69009;SHT31;56065;52.472;13.380;2022-10-31T00:14:08;13.93;84.00
69009;SHT31;56065;52.472;13.380;2022-10-31T00:16:33;13.93;83.47
69009;SHT31;56065;52.472;13.380;2022-10-31T00:19:01;13.92;83.81
69009;SHT31;56065;52.472;13.380;2022-10-31T00:21:27;13.95;83.88
69009;SHT31;56065;52.472;13.380;2022-10-31T00:23:53;13.93;84.70
69009;SHT31;56065;52.472;13.380;2022-10-31T00:26:19;13.96;84.14
69009;SHT31;56065;52.472;13.380;2022-10-31T00:28:44;13.99;83.77
69009;SHT31;56065;52.472;13.380;2022-10-31T00:31:11;13.96;83.99
69009;SHT31;56065;52.472;13.380;2022-10-31T00:33:38;13.98;83.88
69009;SHT31;56065;52.472;13.380;2022-10-31T00:36:04;13.98;83.99
69009;SHT31;56065;52.472;13.380;2022-10-31T00:38:31;13.92;83.59
69009;SHT31;56065;52.472;13.380;2022-10-31T00:40:56;13.90;83.67
69009;SHT31;56065;52.472;13.380;2022-10-31T00:43:21;13.87;83.88
69009;SHT31;56065;52.472;13.380;2022-10-31T00:45:47;13.85;83.89
69009;SHT31;56065;52.472;13.380;2022-10-31T00:48:12;13.85;83.73
69009;SHT31;56065;52.472;13.380;2022-10-31T00:50:38;13.85;84.09
69009;SHT31;56065;52.472;13.380;2022-10-31T00:53:04;13.81;83.77
69009;SHT31;56065;52.472;13.380;2022-10-31T00:55:29;13.82;83.88
69009;SHT31;56065;52.472;13.380;2022-10-31T00:57:55;13.78;83.99
69009;SHT31;56065;52.472;13.380;2022-10-31T01:00:20;13.79;84.70
69009;SHT31;56065;52.472;13.380;2022-10-31T01:02:45;13.78;84.57
69009;SHT31;56065;52.472;13.380;2022-10-31T01:05:11;13.76;84.42
69009;SHT31;56065;52.472;13.380;2022-10-31T01:07:38;13.78;84.36
69009;SHT31;56065;52.472;13.380;2022-10-31T01:10:04;13.79;84.30
69009;SHT31;56065;52.472;13.380;2022-10-31T01:12:30;13.76;84.43
69009;SHT31;56065;52.472;13.380;2022-10-31T01:15:00;13.75;84.81
69009;SHT31;56065;52.472;13.380;2022-10-31T01:17:25;13.81;85.18
69009;SHT31;56065;52.472;13.380;2022-10-31T01:19:51;13.78;84.82
69009;SHT31;56065;52.472;13.380;2022-10-31T01:22:16;13.76;85.29
69009;SHT31;56065;52.472;13.380;2022-10-31T01:24:41;13.76;85.18
69009;SHT31;56065;52.472;13.380;2022-10-31T01:27:07;13.76;85.21
69009;SHT31;56065;52.472;13.380;2022-10-31T01:29:32;13.74;85.12
69009;SHT31;56065;52.472;13.380;2022-10-31T01:31:57;13.76;85.25
69009;SHT31;56065;52.472;13.380;2022-10-31T01:34:22;13.74;85.83
69009;SHT31;56065;52.472;13.380;2022-10-31T01:36:48;13.75;86.31
69009;SHT31;56065;52.472;13.380;2022-10-31T01:39:17;13.72;85.85
69009;SHT31;56065;52.472;13.380;2022-10-31T01:41:45;13.74;85.56
69009;SHT31;56065;52.472;13.380;2022-10-31T01:46:57;13.74;85.47
69009;SHT31;56065;52.472;13.380;2022-10-31T01:51:58;13.72;85.80
69009;SHT31;56065;52.472;13.380;2022-10-31T01:54:30;13.69;85.63
69009;SHT31;56065;52.472;13.380;2022-10-31T01:56:57;13.68;86.23
69009;SHT31;56065;52.472;13.380;2022-10-31T01:59:25;13.69;85.92
69009;SHT31;56065;52.472;13.380;2022-10-31T02:01:53;13.71;85.74
69009;SHT31;56065;52.472;13.380;2022-10-31T02:04:20;13.69;85.62
69009;SHT31;56065;52.472;13.380;2022-10-31T02:07:03;13.68;85.62
69009;SHT31;56065;52.472;13.380;2022-10-31T02:09:30;13.61;85.70
69009;SHT31;56065;52.472;13.380;2022-10-31T02:11:57;13.59;85.56
69009;SHT31;56065;52.472;13.380;2022-10-31T02:14:25;13.59;85.75
69009;SHT31;56065;52.472;13.380;2022-10-31T02:16:51;13.59;85.53
69009;SHT31;56065;52.472;13.380;2022-10-31T02:19:48;13.55;85.45
69009;SHT31;56065;52.472;13.380;2022-10-31T02:22:26;13.53;85.40
69009;SHT31;56065;52.472;13.380;2022-10-31T02:33:29;13.41;85.56
69009;SHT31;56065;52.472;13.380;2022-10-31T02:36:05;13.40;85.65
69009;SHT31;56065;52.472;13.380;2022-10-31T02:38:47;13.37;85.87
69009;SHT31;56065;52.472;13.380;2022-10-31T02:44:15;13.35;85.79
69009;SHT31;56065;52.472;13.380;2022-10-31T02:47:04;13.34;85.75
69009;SHT31;56065;52.472;13.380;2022-10-31T02:52:26;13.28;85.60
69009;SHT31;56065;52.472;13.380;2022-10-31T02:54:52;13.27;85.70
69009;SHT31;56065;52.472;13.380;2022-10-31T02:57:25;13.25;85.73
69009;SHT31;56065;52.472;13.380;2022-10-31T02:59:57;13.24;85.75
69009;SHT31;56065;52.472;13.380;2022-10-31T03:07:54;13.21;85.86
69009;SHT31;56065;52.472;13.380;2022-10-31T03:13:11;13.15;85.76
69009;SHT31;56065;52.472;13.380;2022-10-31T03:15:42;13.14;85.87
69009;SHT31;56065;52.472;13.380;2022-10-31T03:20:43;13.06;85.86
69009;SHT31;56065;52.472;13.380;2022-10-31T03:23:13;13.06;85.75
69009;SHT31;56065;52.472;13.380;2022-10-31T03:25:40;13.04;85.86
69009;SHT31;56065;52.472;13.380;2022-10-31T03:28:07;13.04;85.88
69009;SHT31;56065;52.472;13.380;2022-10-31T03:30:35;13.02;86.01
69009;SHT31;56065;52.472;13.380;2022-10-31T03:33:05;13.02;85.95
69009;SHT31;56065;52.472;13.380;2022-10-31T03:35:32;13.03;86.01
69009;SHT31;56065;52.472;13.380;2022-10-31T03:38:00;12.99;85.93
69009;SHT31;56065;52.472;13.380;2022-10-31T03:40:27;13.00;85.87
69009;SHT31;56065;52.472;13.380;2022-10-31T03:43:05;13.00;86.04
69009;SHT31;56065;52.472;13.380;2022-10-31T03:45:39;13.02;85.87
69009;SHT31;56065;52.472;13.380;2022-10-31T03:48:06;13.03;86.12
69009;SHT31;56065;52.472;13.380;2022-10-31T03:50:43;13.03;85.87
69009;SHT31;56065;52.472;13.380;2022-10-31T03:53:19;13.02;85.92
69009;SHT31;56065;52.472;13.380;2022-10-31T03:56:22;12.99;85.97
69009;SHT31;56065;52.472;13.380;2022-10-31T03:58:57;12.99;86.03
69009;SHT31;56065;52.472;13.380;2022-10-31T04:01:25;12.97;85.95
69009;SHT31;56065;52.472;13.380;2022-10-31T04:03:51;12.97;86.17
69009;SHT31;56065;52.472;13.380;2022-10-31T04:06:18;13.00;86.22
69009;SHT31;56065;52.472;13.380;2022-10-31T04:08:50;13.00;86.41
69009;SHT31;56065;52.472;13.380;2022-10-31T04:11:18;13.00;86.41
69009;SHT31;56065;52.472;13.380;2022-10-31T04:13:45;13.06;86.31
69009;SHT31;56065;52.472;13.380;2022-10-31T04:16:13;13.07;86.20
69009;SHT31;56065;52.472;13.380;2022-10-31T04:18:39;13.06;86.23
69009;SHT31;56065;52.472;13.380;2022-10-31T04:21:07;13.08;86.18
69009;SHT31;56065;52.472;13.380;2022-10-31T04:23:34;13.06;86.00
69009;SHT31;56065;52.472;13.380;2022-10-31T04:25:59;13.03;85.95
69009;SHT31;56065;52.472;13.380;2022-10-31T04:28:25;13.07;86.41
69009;SHT31;56065;52.472;13.380;2022-10-31T04:30:51;13.04;86.18
69009;SHT31;56065;52.472;13.380;2022-10-31T04:33:16;13.04;86.20
69009;SHT31;56065;52.472;13.380;2022-10-31T04:35:42;13.08;86.16
69009;SHT31;56065;52.472;13.380;2022-10-31T04:38:08;13.07;85.92
69009;SHT31;56065;52.472;13.380;2022-10-31T04:40:33;13.06;85.77
69009;SHT31;56065;52.472;13.380;2022-10-31T04:42:59;13.03;85.90
69009;SHT31;56065;52.472;13.380;2022-10-31T04:45:24;13.02;85.78
69009;SHT31;56065;52.472;13.380;2022-10-31T04:47:49;12.99;86.44
69009;SHT31;56065;52.472;13.380;2022-10-31T04:50:15;12.99;86.46
69009;SHT31;56065;52.472;13.380;2022-10-31T04:52:41;13.00;86.25
69009;SHT31;56065;52.472;13.380;2022-10-31T04:55:07;13.03;86.16
69009;SHT31;56065;52.472;13.380;2022-10-31T04:57:40;13.04;86.12
69009;SHT31;56065;52.472;13.380;2022-10-31T05:00:06;13.04;86.18
69009;SHT31;56065;52.472;13.380;2022-10-31T05:02:31;13.03;85.96
69009;SHT31;56065;52.472;13.380;2022-10-31T05:04:57;13.02;85.95
69009;SHT31;56065;52.472;13.380;2022-10-31T05:07:22;12.99;86.14
69009;SHT31;56065;52.472;13.380;2022-10-31T05:09:47;12.96;86.06
69009;SHT31;56065;52.472;13.380;2022-10-31T05:12:13;12.96;86.19
69009;SHT31;56065;52.472;13.380;2022-10-31T05:14:38;12.96;86.46
69009;SHT31;56065;52.472;13.380;2022-10-31T05:17:03;12.96;86.60
69009;SHT31;56065;52.472;13.380;2022-10-31T05:19:28;12.96;87.54
69009;SHT31;56065;52.472;13.380;2022-10-31T05:21:54;12.94;87.13
69009;SHT31;56065;52.472;13.380;2022-10-31T05:24:19;12.99;87.08
69009;SHT31;56065;52.472;13.380;2022-10-31T05:26:47;12.97;86.70
69009;SHT31;56065;52.472;13.380;2022-10-31T05:29:13;13.00;86.43
69009;SHT31;56065;52.472;13.380;2022-10-31T05:31:38;12.94;86.41
69009;SHT31;56065;52.472;13.380;2022-10-31T05:34:06;12.93;86.38
69009;SHT31;56065;52.472;13.380;2022-10-31T05:36:31;12.93;86.40
69009;SHT31;56065;52.472;13.380;2022-10-31T05:38:57;12.93;86.48
69009;SHT31;56065;52.472;13.380;2022-10-31T05:41:22;12.93;86.55
69009;SHT31;56065;52.472;13.380;2022-10-31T05:43:47;12.89;86.30
69009;SHT31;56065;52.472;13.380;2022-10-31T05:46:13;12.86;86.24
69009;SHT31;56065;52.472;13.380;2022-10-31T05:48:38;12.86;86.39
69009;SHT31;56065;52.472;13.380;2022-10-31T05:51:03;12.84;86.53
69009;SHT31;56065;52.472;13.380;2022-10-31T05:53:29;12.87;86.47
69009;SHT31;56065;52.472;13.380;2022-10-31T05:55:54;12.90;86.43
69009;SHT31;56065;52.472;13.380;2022-10-31T05:58:19;12.90;86.48
69009;SHT31;56065;52.472;13.380;2022-10-31T06:00:45;12.89;86.61
69009;SHT31;56065;52.472;13.380;2022-10-31T06:03:10;12.96;86.43
69009;SHT31;56065;52.472;13.380;2022-10-31T06:05:35;12.99;86.44
69009;SHT31;56065;52.472;13.380;2022-10-31T06:08:01;13.00;86.41
69009;SHT31;56065;52.472;13.380;2022-10-31T06:10:27;12.99;86.31
69009;SHT31;56065;52.472;13.380;2022-10-31T06:12:53;13.04;86.15
69009;SHT31;56065;52.472;13.380;2022-10-31T06:15:18;13.04;86.12
69009;SHT31;56065;52.472;13.380;2022-10-31T06:17:44;13.10;86.06
69009;SHT31;56065;52.472;13.380;2022-10-31T06:20:10;13.13;86.02
69009;SHT31;56065;52.472;13.380;2022-10-31T06:22:35;13.15;86.00
69009;SHT31;56065;52.472;13.380;2022-10-31T06:25:01;13.20;85.86
69009;SHT31;56065;52.472;13.380;2022-10-31T06:27:26;13.25;85.79
69009;SHT31;56065;52.472;13.380;2022-10-31T06:29:52;13.30;85.64
69009;SHT31;56065;52.472;13.380;2022-10-31T06:32:17;13.40;85.53
69009;SHT31;56065;52.472;13.380;2022-10-31T06:34:43;13.48;85.46
69009;SHT31;56065;52.472;13.380;2022-10-31T06:37:12;13.59;85.33
69009;SHT31;56065;52.472;13.380;2022-10-31T06:39:37;13.68;85.22
69009;SHT31;56065;52.472;13.380;2022-10-31T06:42:03;13.76;84.95
69009;SHT31;56065;52.472;13.380;2022-10-31T06:44:29;13.83;84.74
69009;SHT31;56065;52.472;13.380;2022-10-31T06:46:55;13.92;84.69
69009;SHT31;56065;52.472;13.380;2022-10-31T06:49:20;13.98;84.58
69009;SHT31;56065;52.472;13.380;2022-10-31T06:51:49;13.99;84.37
69009;SHT31;56065;52.472;13.380;2022-10-31T06:54:15;14.08;84.46
69009;SHT31;56065;52.472;13.380;2022-10-31T06:56:41;14.12;84.24
69009;SHT31;56065;52.472;13.380;2022-10-31T06:59:06;14.27;84.19
69009;SHT31;56065;52.472;13.380;2022-10-31T07:01:31;14.41;83.93
69009;SHT31;56065;52.472;13.380;2022-10-31T07:03:57;14.50;83.93
69009;SHT31;56065;52.472;13.380;2022-10-31T07:06:22;14.77;83.67
69009;SHT31;56065;52.472;13.380;2022-10-31T07:08:47;15.01;83.12
69009;SHT31;56065;52.472;13.380;2022-10-31T07:11:13;15.21;82.65
69009;SHT31;56065;52.472;13.380;2022-10-31T07:13:39;15.34;82.35
69009;SHT31;56065;52.472;13.380;2022-10-31T07:16:05;15.46;82.07
69009;SHT31;56065;52.472;13.380;2022-10-31T07:18:32;15.65;82.05
69009;SHT31;56065;52.472;13.380;2022-10-31T07:20:57;15.79;81.61
69009;SHT31;56065;52.472;13.380;2022-10-31T07:23:22;15.93;81.33
69009;SHT31;56065;52.472;13.380;2022-10-31T07:25:48;16.17;81.33
69009;SHT31;56065;52.472;13.380;2022-10-31T07:28:13;16.47;80.83
69009;SHT31;56065;52.472;13.380;2022-10-31T07:30:38;16.76;80.31
69009;SHT31;56065;52.472;13.380;2022-10-31T07:33:05;17.13;79.62
69009;SHT31;56065;52.472;13.380;2022-10-31T07:35:31;17.67;79.22
69009;SHT31;56065;52.472;13.380;2022-10-31T07:37:57;18.76;76.99
69009;SHT31;56065;52.472;13.380;2022-10-31T07:40:23;20.04;73.79
69009;SHT31;56065;52.472;13.380;2022-10-31T07:42:50;21.18;70.93
69009;SHT31;56065;52.472;13.380;2022-10-31T07:45:19;21.93;67.69
69009;SHT31;56065;52.472;13.380;2022-10-31T07:47:51;22.75;66.08
69009;SHT31;56065;52.472;13.380;2022-10-31T07:50:21;23.18;64.75
69009;SHT31;56065;52.472;13.380;2022-10-31T07:52:47;23.76;62.71
69009;SHT31;56065;52.472;13.380;2022-10-31T07:55:12;24.10;61.57
69009;SHT31;56065;52.472;13.380;2022-10-31T07:57:38;23.79;62.72
69009;SHT31;56065;52.472;13.380;2022-10-31T08:00:05;23.51;63.21
69009;SHT31;56065;52.472;13.380;2022-10-31T08:02:30;23.37;63.44
69009;SHT31;56065;52.472;13.380;2022-10-31T08:04:56;23.02;63.87
69009;SHT31;56065;52.472;13.380;2022-10-31T08:07:21;22.31;65.18
69009;SHT31;56065;52.472;13.380;2022-10-31T08:09:47;21.68;66.24
69009;SHT31;56065;52.472;13.380;2022-10-31T08:12:12;21.18;67.80
69009;SHT31;56065;52.472;13.380;2022-10-31T08:14:37;20.74;68.86
69009;SHT31;56065;52.472;13.380;2022-10-31T08:17:03;20.55;69.36
69009;SHT31;56065;52.472;13.380;2022-10-31T08:19:28;20.20;70.07
69009;SHT31;56065;52.472;13.380;2022-10-31T08:21:53;20.07;70.52
69009;SHT31;56065;52.472;13.380;2022-10-31T08:24:23;19.90;71.01
69009;SHT31;56065;52.472;13.380;2022-10-31T08:26:49;19.80;71.55
69009;SHT31;56065;52.472;13.380;2022-10-31T08:29:14;19.69;71.66
69009;SHT31;56065;52.472;13.380;2022-10-31T08:31:41;19.55;71.89
69009;SHT31;56065;52.472;13.380;2022-10-31T08:34:06;19.63;72.17
69009;SHT31;56065;52.472;13.380;2022-10-31T08:36:32;19.56;72.11
69009;SHT31;56065;52.472;13.380;2022-10-31T08:38:57;19.59;72.21
69009;SHT31;56065;52.472;13.380;2022-10-31T08:41:22;19.66;72.17
69009;SHT31;56065;52.472;13.380;2022-10-31T08:43:48;19.83;72.01
69009;SHT31;56065;52.472;13.380;2022-10-31T08:46:13;20.14;71.69
69009;SHT31;56065;52.472;13.380;2022-10-31T08:48:39;20.63;70.80
69009;SHT31;56065;52.472;13.380;2022-10-31T08:51:04;20.79;70.15
69009;SHT31;56065;52.472;13.380;2022-10-31T08:53:30;20.91;69.23
69009;SHT31;56065;52.472;13.380;2022-10-31T08:55:56;21.25;68.70
69009;SHT31;56065;52.472;13.380;2022-10-31T08:58:22;21.81;68.19
69009;SHT31;56065;52.472;13.380;2022-10-31T09:00:50;22.63;66.66
69009;SHT31;56065;52.472;13.380;2022-10-31T09:03:21;22.96;64.96
69009;SHT31;56065;52.472;13.380;2022-10-31T09:05:47;23.13;63.97
69009;SHT31;56065;52.472;13.380;2022-10-31T09:08:13;23.27;63.69
69009;SHT31;56065;52.472;13.380;2022-10-31T09:10:39;23.89;62.57
69009;SHT31;56065;52.472;13.380;2022-10-31T09:13:08;24.68;60.99
69009;SHT31;56065;52.472;13.380;2022-10-31T09:15:36;25.10;60.43
69009;SHT31;56065;52.472;13.380;2022-10-31T09:18:01;24.97;60.01
69009;SHT31;56065;52.472;13.380;2022-10-31T09:20:28;24.70;60.79
69009;SHT31;56065;52.472;13.380;2022-10-31T09:23:09;24.16;61.11
69009;SHT31;56065;52.472;13.380;2022-10-31T09:25:35;23.98;61.44
69009;SHT31;56065;52.472;13.380;2022-10-31T09:28:02;23.62;62.34
69009;SHT31;56065;52.472;13.380;2022-10-31T09:30:30;23.78;62.25
69009;SHT31;56065;52.472;13.380;2022-10-31T09:33:00;23.92;62.70
69009;SHT31;56065;52.472;13.380;2022-10-31T09:35:26;24.49;61.70
69009;SHT31;56065;52.472;13.380;2022-10-31T09:38:00;24.91;59.72
69009;SHT31;56065;52.472;13.380;2022-10-31T09:40:35;24.83;59.47
69009;SHT31;56065;52.472;13.380;2022-10-31T09:49:24;23.43;61.90
69009;SHT31;56065;52.472;13.380;2022-10-31T09:51:48;22.83;63.31
69009;SHT31;56065;52.472;13.380;2022-10-31T09:54:20;22.38;64.29
69009;SHT31;56065;52.472;13.380;2022-10-31T09:56:47;21.90;65.61
69009;SHT31;56065;52.472;13.380;2022-10-31T09:59:24;21.51;66.41
69009;SHT31;56065;52.472;13.380;2022-10-31T10:02:03;21.35;66.66
69009;SHT31;56065;52.472;13.380;2022-10-31T10:04:42;22.07;66.54
69009;SHT31;56065;52.472;13.380;2022-10-31T10:08:02;23.13;64.11
69009;SHT31;56065;52.472;13.380;2022-10-31T10:10:49;23.88;62.72
69009;SHT31;56065;52.472;13.380;2022-10-31T10:27:41;22.56;64.28
69009;SHT31;56065;52.472;13.380;2022-10-31T10:32:43;22.90;64.16
69009;SHT31;56065;52.472;13.380;2022-10-31T10:38:14;24.68;61.57
69009;SHT31;56065;52.472;13.380;2022-10-31T10:40:41;25.87;59.16
69009;SHT31;56065;52.472;13.380;2022-10-31T10:43:20;26.65;57.26
69009;SHT31;56065;52.472;13.380;2022-10-31T10:48:55;28.24;53.50
69009;SHT31;56065;52.472;13.380;2022-10-31T10:51:29;28.46;53.12
69009;SHT31;56065;52.472;13.380;2022-10-31T10:54:13;28.05;53.74
69009;SHT31;56065;52.472;13.380;2022-10-31T10:59:47;27.46;54.83
69009;SHT31;56065;52.472;13.380;2022-10-31T11:02:22;27.16;55.29
69009;SHT31;56065;52.472;13.380;2022-10-31T11:04:51;27.06;54.99
69009;SHT31;56065;52.472;13.380;2022-10-31T11:07:17;27.36;54.86
69009;SHT31;56065;52.472;13.380;2022-10-31T11:09:43;27.80;54.17
69009;SHT31;56065;52.472;13.380;2022-10-31T11:12:15;28.39;53.10
69009;SHT31;56065;52.472;13.380;2022-10-31T11:14:48;28.49;53.00
69009;SHT31;56065;52.472;13.380;2022-10-31T11:17:22;28.55;52.49
69009;SHT31;56065;52.472;13.380;2022-10-31T11:19:59;28.29;52.34
69009;SHT31;56065;52.472;13.380;2022-10-31T11:22:25;28.18;53.16
69009;SHT31;56065;52.472;13.380;2022-10-31T11:24:51;27.77;53.68
69009;SHT31;56065;52.472;13.380;2022-10-31T11:27:22;27.74;53.75
69009;SHT31;56065;52.472;13.380;2022-10-31T11:29:49;28.02;53.90
69009;SHT31;56065;52.472;13.380;2022-10-31T11:32:22;28.92;52.66
69009;SHT31;56065;52.472;13.380;2022-10-31T11:35:00;29.53;50.36
69009;SHT31;56065;52.472;13.380;2022-10-31T11:37:28;30.01;49.68
69009;SHT31;56065;52.472;13.380;2022-10-31T11:39:57;30.61;49.45
69009;SHT31;56065;52.472;13.380;2022-10-31T11:42:27;30.68;48.51
69009;SHT31;56065;52.472;13.380;2022-10-31T11:44:54;31.24;48.30
69009;SHT31;56065;52.472;13.380;2022-10-31T11:47:26;31.41;47.16
69009;SHT31;56065;52.472;13.380;2022-10-31T11:49:54;31.42;48.01
69009;SHT31;56065;52.472;13.380;2022-10-31T11:52:25;31.61;47.54
69009;SHT31;56065;52.472;13.380;2022-10-31T11:54:58;31.61;46.88
69009;SHT31;56065;52.472;13.380;2022-10-31T11:57:27;31.62;47.54
69009;SHT31;56065;52.472;13.380;2022-10-31T11:59:58;31.52;47.68
69009;SHT31;56065;52.472;13.380;2022-10-31T12:02:25;31.56;47.59
69009;SHT31;56065;52.472;13.380;2022-10-31T12:05:11;31.72;47.07
69009;SHT31;56065;52.472;13.380;2022-10-31T12:07:43;31.59;47.60
69009;SHT31;56065;52.472;13.380;2022-10-31T12:10:12;31.52;47.82
69009;SHT31;56065;52.472;13.380;2022-10-31T12:15:33;31.34;47.38
69009;SHT31;56065;52.472;13.380;2022-10-31T12:18:22;31.34;47.50
69009;SHT31;56065;52.472;13.380;2022-10-31T12:26:34;30.32;49.07
69009;SHT31;56065;52.472;13.380;2022-10-31T12:39:46;27.83;52.51
69009;SHT31;56065;52.472;13.380;2022-10-31T12:54:07;25.62;57.50
69009;SHT31;56065;52.472;13.380;2022-10-31T13:02:18;25.08;59.16
69009;SHT31;56065;52.472;13.380;2022-10-31T13:04:59;25.03;59.94
69009;SHT31;56065;52.472;13.380;2022-10-31T13:08:06;25.10;59.54
69009;SHT31;56065;52.472;13.380;2022-10-31T13:13:31;24.84;60.08
69009;SHT31;56065;52.472;13.380;2022-10-31T13:16:11;24.70;61.49
69009;SHT31;56065;52.472;13.380;2022-10-31T13:18:46;24.66;59.80
69009;SHT31;56065;52.472;13.380;2022-10-31T13:21:21;24.50;59.90
69009;SHT31;56065;52.472;13.380;2022-10-31T13:23:49;24.19;61.40
69009;SHT31;56065;52.472;13.380;2022-10-31T13:26:35;24.08;61.19
69009;SHT31;56065;52.472;13.380;2022-10-31T13:29:18;23.88;62.14
69009;SHT31;56065;52.472;13.380;2022-10-31T13:31:45;23.82;61.84
69009;SHT31;56065;52.472;13.380;2022-10-31T13:34:39;23.68;62.17
69009;SHT31;56065;52.472;13.380;2022-10-31T13:43:02;23.38;63.41
69009;SHT31;56065;52.472;13.380;2022-10-31T13:45:25;23.33;63.58
69009;SHT31;56065;52.472;13.380;2022-10-31T13:50:40;23.08;63.84
69009;SHT31;56065;52.472;13.380;2022-10-31T13:55:42;22.80;64.75
69009;SHT31;56065;52.472;13.380;2022-10-31T13:58:28;22.70;64.82
69009;SHT31;56065;52.472;13.380;2022-10-31T14:01:21;22.51;65.63
69009;SHT31;56065;52.472;13.380;2022-10-31T14:03:56;22.42;65.74
69009;SHT31;56065;52.472;13.380;2022-10-31T14:06:33;22.32;66.02
69009;SHT31;56065;52.472;13.380;2022-10-31T14:09:00;22.25;66.36
69009;SHT31;56065;52.472;13.380;2022-10-31T14:11:26;22.14;66.47
69009;SHT31;56065;52.472;13.380;2022-10-31T14:13:55;22.09;66.67
69009;SHT31;56065;52.472;13.380;2022-10-31T14:16:26;21.97;66.93
69009;SHT31;56065;52.472;13.380;2022-10-31T14:19:04;21.88;67.08
69009;SHT31;56065;52.472;13.380;2022-10-31T14:21:36;21.83;67.32
69009;SHT31;56065;52.472;13.380;2022-10-31T14:24:14;21.68;68.16
69009;SHT31;56065;52.472;13.380;2022-10-31T14:26:39;21.61;68.44
69009;SHT31;56065;52.472;13.380;2022-10-31T14:31:42;21.37;69.01
69009;SHT31;56065;52.472;13.380;2022-10-31T14:42:47;20.78;70.84
69009;SHT31;56065;52.472;13.380;2022-10-31T14:48:03;20.52;71.66
69009;SHT31;56065;52.472;13.380;2022-10-31T14:50:40;20.37;71.76
69009;SHT31;56065;52.472;13.380;2022-10-31T14:53:56;20.20;72.34
69009;SHT31;56065;52.472;13.380;2022-10-31T14:55:57;20.09;72.64
69009;SHT31;56065;52.472;13.380;2022-10-31T14:58:46;19.93;72.89
69009;SHT31;56065;52.472;13.380;2022-10-31T15:01:24;19.79;73.28
69009;SHT31;56065;52.472;13.380;2022-10-31T15:03:52;19.66;73.85
69009;SHT31;56065;52.472;13.380;2022-10-31T15:06:20;19.56;73.85
69009;SHT31;56065;52.472;13.380;2022-10-31T15:08:47;19.45;74.10
69009;SHT31;56065;52.472;13.380;2022-10-31T15:11:20;19.36;74.17
69009;SHT31;56065;52.472;13.380;2022-10-31T15:13:56;19.28;74.49
69009;SHT31;56065;52.472;13.380;2022-10-31T15:16:32;19.14;75.03
69009;SHT31;56065;52.472;13.380;2022-10-31T15:19:03;19.04;75.17
69009;SHT31;56065;52.472;13.380;2022-10-31T15:21:29;18.97;75.72
69009;SHT31;56065;52.472;13.380;2022-10-31T15:24:01;18.88;75.88
69009;SHT31;56065;52.472;13.380;2022-10-31T15:26:35;18.74;76.19
69009;SHT31;56065;52.472;13.380;2022-10-31T15:29:05;18.61;76.28
69009;SHT31;56065;52.472;13.380;2022-10-31T15:31:31;18.50;77.16
69009;SHT31;56065;52.472;13.380;2022-10-31T15:34:04;18.46;77.81
69009;SHT31;56065;52.472;13.380;2022-10-31T15:36:30;18.42;76.95
69009;SHT31;56065;52.472;13.380;2022-10-31T15:38:57;18.35;76.80
69009;SHT31;56065;52.472;13.380;2022-10-31T15:41:28;18.24;77.14
69009;SHT31;56065;52.472;13.380;2022-10-31T15:44:00;18.17;77.09
69009;SHT31;56065;52.472;13.380;2022-10-31T15:46:30;18.10;77.20
69009;SHT31;56065;52.472;13.380;2022-10-31T15:48:55;18.04;77.70
69009;SHT31;56065;52.472;13.380;2022-10-31T15:51:30;17.95;78.03
69009;SHT31;56065;52.472;13.380;2022-10-31T15:53:56;17.95;77.59
69009;SHT31;56065;52.472;13.380;2022-10-31T15:56:25;17.88;77.96
69009;SHT31;56065;52.472;13.380;2022-10-31T15:58:52;17.84;77.83
69009;SHT31;56065;52.472;13.380;2022-10-31T16:01:28;17.78;78.09
69009;SHT31;56065;52.472;13.380;2022-10-31T16:06:33;17.60;78.27
69009;SHT31;56065;52.472;13.380;2022-10-31T16:08:59;17.54;78.59
69009;SHT31;56065;52.472;13.380;2022-10-31T16:16:51;17.38;79.29
69009;SHT31;56065;52.472;13.380;2022-10-31T16:19:25;17.31;79.30
69009;SHT31;56065;52.472;13.380;2022-10-31T16:22:03;17.27;79.07
69009;SHT31;56065;52.472;13.380;2022-10-31T16:24:35;17.24;79.64
69009;SHT31;56065;52.472;13.380;2022-10-31T16:27:05;17.16;79.68
69009;SHT31;56065;52.472;13.380;2022-10-31T16:29:45;17.10;79.98
69009;SHT31;56065;52.472;13.380;2022-10-31T16:37:26;16.99;80.04
69009;SHT31;56065;52.472;13.380;2022-10-31T16:39:51;16.95;80.34
69009;SHT31;56065;52.472;13.380;2022-10-31T16:42:17;16.90;80.18
69009;SHT31;56065;52.472;13.380;2022-10-31T16:44:43;16.87;80.53
69009;SHT31;56065;52.472;13.380;2022-10-31T16:47:14;16.82;80.54
69009;SHT31;56065;52.472;13.380;2022-10-31T16:49:41;16.77;80.54
69009;SHT31;56065;52.472;13.380;2022-10-31T16:52:06;16.76;80.46
69009;SHT31;56065;52.472;13.380;2022-10-31T16:54:32;16.69;81.05
69009;SHT31;56065;52.472;13.380;2022-10-31T16:56:59;16.64;81.52
69009;SHT31;56065;52.472;13.380;2022-10-31T16:59:24;16.59;81.04
69009;SHT31;56065;52.472;13.380;2022-10-31T17:01:51;16.54;81.33
69009;SHT31;56065;52.472;13.380;2022-10-31T17:04:16;16.45;81.82
69009;SHT31;56065;52.472;13.380;2022-10-31T17:06:42;16.40;81.73
69009;SHT31;56065;52.472;13.380;2022-10-31T17:09:08;16.36;81.97
69009;SHT31;56065;52.472;13.380;2022-10-31T17:11:34;16.34;81.56
69009;SHT31;56065;52.472;13.380;2022-10-31T17:14:00;16.36;81.59
69009;SHT31;56065;52.472;13.380;2022-10-31T17:16:26;16.34;81.84
69009;SHT31;56065;52.472;13.380;2022-10-31T17:18:51;16.28;81.91
69009;SHT31;56065;52.472;13.380;2022-10-31T17:21:23;16.21;82.49
69009;SHT31;56065;52.472;13.380;2022-10-31T17:23:50;16.20;82.21
69009;SHT31;56065;52.472;13.380;2022-10-31T17:26:16;16.17;81.90
69009;SHT31;56065;52.472;13.380;2022-10-31T17:28:41;16.11;82.35
69009;SHT31;56065;52.472;13.380;2022-10-31T17:33:43;16.05;82.37
69009;SHT31;56065;52.472;13.380;2022-10-31T17:36:08;16.01;82.56
69009;SHT31;56065;52.472;13.380;2022-10-31T17:38:36;15.96;82.58
69009;SHT31;56065;52.472;13.380;2022-10-31T17:41:04;15.93;82.59
69009;SHT31;56065;52.472;13.380;2022-10-31T17:43:30;15.93;82.69
69009;SHT31;56065;52.472;13.380;2022-10-31T17:45:58;15.91;82.62
69009;SHT31;56065;52.472;13.380;2022-10-31T17:48:24;15.84;83.12
69009;SHT31;56065;52.472;13.380;2022-10-31T17:50:49;15.84;83.01